sensor_id;sensor_type;location;lat;lon;timestamp;temperature;humidity
4107;DHT22;21906;50.812;7.132;2023-04-01T00:01:46;12.80;64.00
4107;DHT22;21906;50.812;7.132;2023-04-01T00:04:12;12.80;64.00
4107;DHT22;21906;50.812;7.132;2023-04-01T00:06:38;12.80;64.30
4107;DHT22;21906;50.812;7.132;2023-04-01T00:09:04;12.90;63.90
4107;DHT22;21906;50.812;7.132;2023-04-01T00:11:29;12.90;63.60
4107;DHT22;21906;50.812;7.132;2023-04-01T00:13:55;13.00;63.50
4107;DHT22;21906;50.812;7.132;2023-04-01T00:16:21;13.00;63.40
4107;DHT22;21906;50.812;7.132;2023-04-01T00:18:48;12.90;63.60
4107;DHT22;21906;50.812;7.132;2023-04-01T00:21:14;12.90;63.50
4107;DHT22;21906;50.812;7.132;2023-04-01T00:23:40;12.90;64.10
4107;DHT22;21906;50.812;7.132;2023-04-01T00:26:06;12.90;64.10
4107;DHT22;21906;50.812;7.132;2023-04-01T00:28:34;12.90;63.80
4107;DHT22;21906;50.812;7.132;2023-04-01T00:31:05;12.90;64.10
4107;DHT22;21906;50.812;7.132;2023-04-01T00:33:31;12.90;64.20
4107;DHT22;21906;50.812;7.132;2023-04-01T00:36:09;12.90;64.20
4107;DHT22;21906;50.812;7.132;2023-04-01T00:38:35;12.80;64.40
4107;DHT22;21906;50.812;7.132;2023-04-01T00:41:01;12.90;64.60
4107;DHT22;21906;50.812;7.132;2023-04-01T00:43:27;12.90;64.40
4107;DHT22;21906;50.812;7.132;2023-04-01T00:45:52;12.70;64.70
4107;DHT22;21906;50.812;7.132;2023-04-01T00:48:22;12.70;65.00
4107;DHT22;21906;50.812;7.132;2023-04-01T00:50:57;12.70;64.70
4107;DHT22;21906;50.812;7.132;2023-04-01T00:53:24;12.70;64.90
4107;DHT22;21906;50.812;7.132;2023-04-01T00:56:12;12.70;64.90
4107;DHT22;21906;50.812;7.132;2023-04-01T00:58:47;12.60;65.10
4107;DHT22;21906;50.812;7.132;2023-04-01T01:01:14;12.70;65.10
4107;DHT22;21906;50.812;7.132;2023-04-01T01:03:40;12.70;64.80
4107;DHT22;21906;50.812;7.132;2023-04-01T01:12:15;12.70;65.00
4107;DHT22;21906;50.812;7.132;2023-04-01T01:15:05;12.70;64.90
4107;DHT22;21906;50.812;7.132;2023-04-01T01:17:39;12.70;64.90
4107;DHT22;21906;50.812;7.132;2023-04-01T01:20:35;12.70;64.90
4107;DHT22;21906;50.812;7.132;2023-04-01T01:23:30;12.70;64.80
4107;DHT22;21906;50.812;7.132;2023-04-01T01:36:40;12.60;65.10
4107;DHT22;21906;50.812;7.132;2023-04-01T01:39:08;12.60;64.90
4107;DHT22;21906;50.812;7.132;2023-04-01T01:41:36;12.70;64.80
4107;DHT22;21906;50.812;7.132;2023-04-01T01:44:07;12.60;64.80
4107;DHT22;21906;50.812;7.132;2023-04-01T01:46:33;12.60;64.60
4107;DHT22;21906;50.812;7.132;2023-04-01T01:49:00;12.60;64.80
4107;DHT22;21906;50.812;7.132;2023-04-01T01:51:28;12.60;64.60
4107;DHT22;21906;50.812;7.132;2023-04-01T01:53:54;12.60;64.70
4107;DHT22;21906;50.812;7.132;2023-04-01T01:56:23;12.60;64.80
4107;DHT22;21906;50.812;7.132;2023-04-01T01:58:54;12.60;64.70
4107;DHT22;21906;50.812;7.132;2023-04-01T02:01:24;12.50;64.60
4107;DHT22;21906;50.812;7.132;2023-04-01T02:03:52;12.60;64.60
4107;DHT22;21906;50.812;7.132;2023-04-01T02:06:21;12.60;64.60
4107;DHT22;21906;50.812;7.132;2023-04-01T02:08:49;12.50;64.80
4107;DHT22;21906;50.812;7.132;2023-04-01T02:11:18;12.50;64.80
4107;DHT22;21906;50.812;7.132;2023-04-01T02:13:58;12.50;64.50
4107;DHT22;21906;50.812;7.132;2023-04-01T02:16:39;12.60;64.60
4107;DHT22;21906;50.812;7.132;2023-04-01T02:19:09;12.60;64.30
4107;DHT22;21906;50.812;7.132;2023-04-01T02:21:36;12.60;64.50
4107;DHT22;21906;50.812;7.132;2023-04-01T02:24:06;12.50;64.30
4107;DHT22;21906;50.812;7.132;2023-04-01T02:26:34;12.60;64.30
4107;DHT22;21906;50.812;7.132;2023-04-01T02:29:01;12.60;64.10
4107;DHT22;21906;50.812;7.132;2023-04-01T02:31:29;12.60;64.40
4107;DHT22;21906;50.812;7.132;2023-04-01T02:33:55;12.60;64.70
4107;DHT22;21906;50.812;7.132;2023-04-01T02:36:21;12.60;64.50
4107;DHT22;21906;50.812;7.132;2023-04-01T02:38:47;12.60;64.50
4107;DHT22;21906;50.812;7.132;2023-04-01T02:41:15;12.60;65.10
4107;DHT22;21906;50.812;7.132;2023-04-01T02:43:40;12.50;65.90
4107;DHT22;21906;50.812;7.132;2023-04-01T02:46:06;12.40;66.60
4107;DHT22;21906;50.812;7.132;2023-04-01T02:48:32;12.40;66.50
4107;DHT22;21906;50.812;7.132;2023-04-01T02:50:57;12.40;67.00
4107;DHT22;21906;50.812;7.132;2023-04-01T02:53:23;12.40;67.00
4107;DHT22;21906;50.812;7.132;2023-04-01T02:55:49;12.40;67.40
4107;DHT22;21906;50.812;7.132;2023-04-01T02:58:17;12.40;67.40
4107;DHT22;21906;50.812;7.132;2023-04-01T03:00:42;12.40;67.80
4107;DHT22;21906;50.812;7.132;2023-04-01T03:03:08;12.30;68.40
4107;DHT22;21906;50.812;7.132;2023-04-01T03:05:34;12.20;69.00
4107;DHT22;21906;50.812;7.132;2023-04-01T03:08:00;12.30;68.90
4107;DHT22;21906;50.812;7.132;2023-04-01T03:10:26;12.30;69.00
4107;DHT22;21906;50.812;7.132;2023-04-01T03:12:51;12.20;69.30
4107;DHT22;21906;50.812;7.132;2023-04-01T03:15:17;12.30;69.30
4107;DHT22;21906;50.812;7.132;2023-04-01T03:17:43;12.30;69.30
4107;DHT22;21906;50.812;7.132;2023-04-01T03:20:10;12.30;69.80
4107;DHT22;21906;50.812;7.132;2023-04-01T03:22:37;12.20;70.20
4107;DHT22;21906;50.812;7.132;2023-04-01T03:25:03;12.20;70.80
4107;DHT22;21906;50.812;7.132;2023-04-01T03:27:29;12.20;70.50
4107;DHT22;21906;50.812;7.132;2023-04-01T03:29:55;12.10;70.70
4107;DHT22;21906;50.812;7.132;2023-04-01T03:32:20;12.20;70.00
4107;DHT22;21906;50.812;7.132;2023-04-01T03:34:46;12.20;70.30
4107;DHT22;21906;50.812;7.132;2023-04-01T03:37:12;12.20;69.90
4107;DHT22;21906;50.812;7.132;2023-04-01T03:39:37;12.20;70.10
4107;DHT22;21906;50.812;7.132;2023-04-01T03:42:03;12.10;69.70
4107;DHT22;21906;50.812;7.132;2023-04-01T03:44:33;12.20;69.70
4107;DHT22;21906;50.812;7.132;2023-04-01T03:46:59;12.10;69.90
4107;DHT22;21906;50.812;7.132;2023-04-01T03:49:25;12.10;69.60
4107;DHT22;21906;50.812;7.132;2023-04-01T03:51:51;12.20;69.40
4107;DHT22;21906;50.812;7.132;2023-04-01T03:54:17;12.10;68.60
4107;DHT22;21906;50.812;7.132;2023-04-01T03:56:44;12.10;69.00
4107;DHT22;21906;50.812;7.132;2023-04-01T03:59:11;12.10;67.80
4107;DHT22;21906;50.812;7.132;2023-04-01T04:01:37;12.10;68.10
4107;DHT22;21906;50.812;7.132;2023-04-01T04:04:02;12.20;68.00
4107;DHT22;21906;50.812;7.132;2023-04-01T04:06:28;12.20;68.10
4107;DHT22;21906;50.812;7.132;2023-04-01T04:08:54;12.10;68.30
4107;DHT22;21906;50.812;7.132;2023-04-01T04:11:21;12.10;68.30
4107;DHT22;21906;50.812;7.132;2023-04-01T04:13:47;12.10;67.80
4107;DHT22;21906;50.812;7.132;2023-04-01T04:16:13;12.10;68.00
4107;DHT22;21906;50.812;7.132;2023-04-01T04:18:39;12.10;68.00
4107;DHT22;21906;50.812;7.132;2023-04-01T04:21:05;12.00;68.10
4107;DHT22;21906;50.812;7.132;2023-04-01T04:23:31;12.00;68.20
4107;DHT22;21906;50.812;7.132;2023-04-01T04:26:01;12.10;68.00
4107;DHT22;21906;50.812;7.132;2023-04-01T04:28:30;12.20;67.50
4107;DHT22;21906;50.812;7.132;2023-04-01T04:30:56;12.20;67.70
4107;DHT22;21906;50.812;7.132;2023-04-01T04:33:22;12.20;67.70
4107;DHT22;21906;50.812;7.132;2023-04-01T04:35:48;12.20;67.90
4107;DHT22;21906;50.812;7.132;2023-04-01T04:38:14;12.20;67.90
4107;DHT22;21906;50.812;7.132;2023-04-01T04:40:41;12.20;67.90
4107;DHT22;21906;50.812;7.132;2023-04-01T04:43:07;12.20;68.10
4107;DHT22;21906;50.812;7.132;2023-04-01T04:45:35;12.20;68.00
4107;DHT22;21906;50.812;7.132;2023-04-01T04:48:00;12.20;67.90
4107;DHT22;21906;50.812;7.132;2023-04-01T04:50:26;12.10;68.30
4107;DHT22;21906;50.812;7.132;2023-04-01T04:52:52;12.20;68.00
4107;DHT22;21906;50.812;7.132;2023-04-01T04:55:17;12.10;68.40
4107;DHT22;21906;50.812;7.132;2023-04-01T04:57:43;12.20;68.50
4107;DHT22;21906;50.812;7.132;2023-04-01T05:00:09;12.20;68.50
4107;DHT22;21906;50.812;7.132;2023-04-01T05:02:38;12.10;69.20
4107;DHT22;21906;50.812;7.132;2023-04-01T05:05:04;12.10;69.50
4107;DHT22;21906;50.812;7.132;2023-04-01T05:07:30;12.00;70.20
4107;DHT22;21906;50.812;7.132;2023-04-01T05:09:55;12.00;70.00
4107;DHT22;21906;50.812;7.132;2023-04-01T05:12:21;12.00;70.20
4107;DHT22;21906;50.812;7.132;2023-04-01T05:14:46;12.00;70.20
4107;DHT22;21906;50.812;7.132;2023-04-01T05:17:12;12.00;70.10
4107;DHT22;21906;50.812;7.132;2023-04-01T05:19:38;12.00;70.40
4107;DHT22;21906;50.812;7.132;2023-04-01T05:22:05;12.00;70.50
4107;DHT22;21906;50.812;7.132;2023-04-01T05:24:32;12.10;70.50
4107;DHT22;21906;50.812;7.132;2023-04-01T05:26:58;12.10;70.50
4107;DHT22;21906;50.812;7.132;2023-04-01T05:29:25;12.20;70.20
4107;DHT22;21906;50.812;7.132;2023-04-01T05:31:51;12.20;70.40
4107;DHT22;21906;50.812;7.132;2023-04-01T05:34:16;12.10;70.50
4107;DHT22;21906;50.812;7.132;2023-04-01T05:36:43;12.10;70.80
4107;DHT22;21906;50.812;7.132;2023-04-01T05:39:09;12.10;71.30
4107;DHT22;21906;50.812;7.132;2023-04-01T05:41:35;12.00;71.90
4107;DHT22;21906;50.812;7.132;2023-04-01T05:44:02;11.90;72.00
4107;DHT22;21906;50.812;7.132;2023-04-01T05:46:27;12.00;71.80
4107;DHT22;21906;50.812;7.132;2023-04-01T05:48:53;11.90;72.30
4107;DHT22;21906;50.812;7.132;2023-04-01T05:51:19;11.90;72.70
4107;DHT22;21906;50.812;7.132;2023-04-01T05:53:44;11.90;72.60
4107;DHT22;21906;50.812;7.132;2023-04-01T05:56:10;11.90;72.60
4107;DHT22;21906;50.812;7.132;2023-04-01T05:58:36;11.90;72.60
4107;DHT22;21906;50.812;7.132;2023-04-01T06:01:10;11.90;72.50
4107;DHT22;21906;50.812;7.132;2023-04-01T06:03:36;11.90;73.00
4107;DHT22;21906;50.812;7.132;2023-04-01T06:06:02;11.90;72.90
4107;DHT22;21906;50.812;7.132;2023-04-01T06:08:30;11.90;72.90
4107;DHT22;21906;50.812;7.132;2023-04-01T06:11:35;11.90;72.80
4107;DHT22;21906;50.812;7.132;2023-04-01T06:14:45;12.00;72.90
4107;DHT22;21906;50.812;7.132;2023-04-01T06:17:57;11.90;72.80
4107;DHT22;21906;50.812;7.132;2023-04-01T06:26:32;12.00;73.00
4107;DHT22;21906;50.812;7.132;2023-04-01T06:31:46;12.00;73.50
4107;DHT22;21906;50.812;7.132;2023-04-01T06:48:21;12.00;73.90
4107;DHT22;21906;50.812;7.132;2023-04-01T06:53:37;12.20;73.70
4107;DHT22;21906;50.812;7.132;2023-04-01T06:56:10;12.20;73.80
4107;DHT22;21906;50.812;7.132;2023-04-01T06:58:42;12.20;73.70
4107;DHT22;21906;50.812;7.132;2023-04-01T07:01:19;12.10;74.30
4107;DHT22;21906;50.812;7.132;2023-04-01T07:03:52;12.20;74.10
4107;DHT22;21906;50.812;7.132;2023-04-01T07:06:45;12.20;74.10
4107;DHT22;21906;50.812;7.132;2023-04-01T07:09:17;12.20;73.90
4107;DHT22;21906;50.812;7.132;2023-04-01T07:11:44;12.20;73.60
4107;DHT22;21906;50.812;7.132;2023-04-01T07:16:58;12.30;73.60
4107;DHT22;21906;50.812;7.132;2023-04-01T07:25:22;12.20;74.00
4107;DHT22;21906;50.812;7.132;2023-04-01T07:27:53;12.20;74.10
4107;DHT22;21906;50.812;7.132;2023-04-01T07:30:22;12.20;74.60
4107;DHT22;21906;50.812;7.132;2023-04-01T07:33:03;12.20;74.90
4107;DHT22;21906;50.812;7.132;2023-04-01T07:38:38;12.40;74.70
4107;DHT22;21906;50.812;7.132;2023-04-01T07:44:11;12.20;74.90
4107;DHT22;21906;50.812;7.132;2023-04-01T07:49:43;12.20;75.70
4107;DHT22;21906;50.812;7.132;2023-04-01T07:52:37;12.20;76.30
4107;DHT22;21906;50.812;7.132;2023-04-01T07:58:31;12.10;75.80
4107;DHT22;21906;50.812;7.132;2023-04-01T08:06:57;12.20;76.10
4107;DHT22;21906;50.812;7.132;2023-04-01T08:09:28;12.10;76.50
4107;DHT22;21906;50.812;7.132;2023-04-01T08:12:20;12.00;77.10
4107;DHT22;21906;50.812;7.132;2023-04-01T08:17:58;12.00;77.10
4107;DHT22;21906;50.812;7.132;2023-04-01T08:20:33;12.10;76.70
4107;DHT22;21906;50.812;7.132;2023-04-01T08:23:21;12.10;77.00
4107;DHT22;21906;50.812;7.132;2023-04-01T08:26:08;12.10;77.30
4107;DHT22;21906;50.812;7.132;2023-04-01T08:28:50;12.00;77.30
4107;DHT22;21906;50.812;7.132;2023-04-01T08:31:25;12.10;77.30
4107;DHT22;21906;50.812;7.132;2023-04-01T08:33:55;12.10;77.30
4107;DHT22;21906;50.812;7.132;2023-04-01T08:36:41;12.00;77.70
4107;DHT22;21906;50.812;7.132;2023-04-01T08:47:17;12.20;77.00
4107;DHT22;21906;50.812;7.132;2023-04-01T08:52:53;12.20;76.70
4107;DHT22;21906;50.812;7.132;2023-04-01T08:58:19;12.00;76.40
4107;DHT22;21906;50.812;7.132;2023-04-01T09:00:54;12.00;77.20
4107;DHT22;21906;50.812;7.132;2023-04-01T09:07:16;12.10;77.70
4107;DHT22;21906;50.812;7.132;2023-04-01T09:15:27;12.30;77.90
4107;DHT22;21906;50.812;7.132;2023-04-01T09:23:40;12.30;77.30
4107;DHT22;21906;50.812;7.132;2023-04-01T09:48:25;12.10;79.10
4107;DHT22;21906;50.812;7.132;2023-04-01T09:51:22;12.10;78.50
4107;DHT22;21906;50.812;7.132;2023-04-01T10:00:03;12.20;78.60
4107;DHT22;21906;50.812;7.132;2023-04-01T10:14:10;12.40;76.30
4107;DHT22;21906;50.812;7.132;2023-04-01T10:36:58;12.50;75.00
4107;DHT22;21906;50.812;7.132;2023-04-01T10:53:36;12.40;74.40
4107;DHT22;21906;50.812;7.132;2023-04-01T10:59:21;12.50;74.60
4107;DHT22;21906;50.812;7.132;2023-04-01T11:07:22;12.60;74.00
4107;DHT22;21906;50.812;7.132;2023-04-01T11:18:08;12.70;74.70
4107;DHT22;21906;50.812;7.132;2023-04-01T11:37:00;12.70;75.90
4107;DHT22;21906;50.812;7.132;2023-04-01T11:45:39;12.80;76.30
4107;DHT22;21906;50.812;7.132;2023-04-01T11:48:48;12.90;75.70
4107;DHT22;21906;50.812;7.132;2023-04-01T12:05:15;13.20;75.40
4107;DHT22;21906;50.812;7.132;2023-04-01T12:07:51;13.40;75.20
4107;DHT22;21906;50.812;7.132;2023-04-01T12:21:29;13.40;75.10
4107;DHT22;21906;50.812;7.132;2023-04-01T12:35:22;13.10;75.40
4107;DHT22;21906;50.812;7.132;2023-04-01T12:38:13;13.10;76.50
4107;DHT22;21906;50.812;7.132;2023-04-01T13:11:36;13.10;73.70
4107;DHT22;21906;50.812;7.132;2023-04-01T13:19:24;13.10;73.80
4107;DHT22;21906;50.812;7.132;2023-04-01T13:24:51;13.20;73.30
4107;DHT22;21906;50.812;7.132;2023-04-01T13:27:40;13.10;72.50
4107;DHT22;21906;50.812;7.132;2023-04-01T13:33:13;13.20;72.60
4107;DHT22;21906;50.812;7.132;2023-04-01T13:44:34;13.30;73.20
4107;DHT22;21906;50.812;7.132;2023-04-01T13:55:35;13.20;74.20
4107;DHT22;21906;50.812;7.132;2023-04-01T13:58:21;13.20;74.60
4107;DHT22;21906;50.812;7.132;2023-04-01T14:06:38;12.90;76.90
4107;DHT22;21906;50.812;7.132;2023-04-01T14:15:15;13.10;75.70
4107;DHT22;21906;50.812;7.132;2023-04-01T14:17:59;13.10;75.20
4107;DHT22;21906;50.812;7.132;2023-04-01T14:36:35;13.00;74.10
4107;DHT22;21906;50.812;7.132;2023-04-01T14:50:25;13.30;75.00
4107;DHT22;21906;50.812;7.132;2023-04-01T14:58:13;13.20;74.90
4107;DHT22;21906;50.812;7.132;2023-04-01T15:08:48;13.00;74.40
4107;DHT22;21906;50.812;7.132;2023-04-01T15:11:48;12.90;74.50
4107;DHT22;21906;50.812;7.132;2023-04-01T15:25:43;13.10;73.90
4107;DHT22;21906;50.812;7.132;2023-04-01T15:34:35;13.20;74.30
4107;DHT22;21906;50.812;7.132;2023-04-01T15:39:57;13.20;74.20
4107;DHT22;21906;50.812;7.132;2023-04-01T15:42:36;13.10;74.90
4107;DHT22;21906;50.812;7.132;2023-04-01T15:56:18;13.20;74.60
4107;DHT22;21906;50.812;7.132;2023-04-01T15:59:09;13.10;74.10
4107;DHT22;21906;50.812;7.132;2023-04-01T16:10:04;12.90;73.60
4107;DHT22;21906;50.812;7.132;2023-04-01T16:15:54;12.90;73.40
4107;DHT22;21906;50.812;7.132;2023-04-01T16:24:30;12.80;73.30
4107;DHT22;21906;50.812;7.132;2023-04-01T16:26:57;12.80;74.10
4107;DHT22;21906;50.812;7.132;2023-04-01T16:37:43;12.70;73.10
4107;DHT22;21906;50.812;7.132;2023-04-01T16:40:24;12.70;73.50
4107;DHT22;21906;50.812;7.132;2023-04-01T16:42:53;12.60;73.70
4107;DHT22;21906;50.812;7.132;2023-04-01T16:48:49;12.70;74.20
4107;DHT22;21906;50.812;7.132;2023-04-01T16:51:18;12.70;74.50
4107;DHT22;21906;50.812;7.132;2023-04-01T16:53:50;12.80;74.40
4107;DHT22;21906;50.812;7.132;2023-04-01T16:56:24;12.80;74.80
4107;DHT22;21906;50.812;7.132;2023-04-01T17:01:30;12.80;75.20
4107;DHT22;21906;50.812;7.132;2023-04-01T17:15:11;12.70;76.20
4107;DHT22;21906;50.812;7.132;2023-04-01T17:17:54;12.60;74.90
4107;DHT22;21906;50.812;7.132;2023-04-01T17:20:32;12.50;75.30
4107;DHT22;21906;50.812;7.132;2023-04-01T17:26:30;12.40;75.20
4107;DHT22;21906;50.812;7.132;2023-04-01T17:40:25;12.20;76.50
4107;DHT22;21906;50.812;7.132;2023-04-01T17:43:15;12.10;77.00
4107;DHT22;21906;50.812;7.132;2023-04-01T17:48:30;12.10;77.10
4107;DHT22;21906;50.812;7.132;2023-04-01T17:51:16;12.20;77.20
4107;DHT22;21906;50.812;7.132;2023-04-01T17:56:58;12.20;78.10
4107;DHT22;21906;50.812;7.132;2023-04-01T17:59:38;12.10;78.40
4107;DHT22;21906;50.812;7.132;2023-04-01T18:10:51;11.90;79.50
4107;DHT22;21906;50.812;7.132;2023-04-01T18:16:28;11.80;80.00
4107;DHT22;21906;50.812;7.132;2023-04-01T18:21:53;11.60;80.70
4107;DHT22;21906;50.812;7.132;2023-04-01T18:24:31;11.60;80.50
4107;DHT22;21906;50.812;7.132;2023-04-01T18:27:04;11.60;80.30
4107;DHT22;21906;50.812;7.132;2023-04-01T18:32:17;11.50;80.50
4107;DHT22;21906;50.812;7.132;2023-04-01T18:35:21;11.50;80.30
4107;DHT22;21906;50.812;7.132;2023-04-01T18:37:59;11.50;80.10
4107;DHT22;21906;50.812;7.132;2023-04-01T18:43:19;11.50;80.10
4107;DHT22;21906;50.812;7.132;2023-04-01T18:45:50;11.50;80.30
4107;DHT22;21906;50.812;7.132;2023-04-01T18:56:45;11.50;80.10
4107;DHT22;21906;50.812;7.132;2023-04-01T18:59:14;11.50;79.80
4107;DHT22;21906;50.812;7.132;2023-04-01T19:01:55;11.50;79.30
4107;DHT22;21906;50.812;7.132;2023-04-01T19:04:33;11.50;79.50
4107;DHT22;21906;50.812;7.132;2023-04-01T19:09:48;11.40;79.20
4107;DHT22;21906;50.812;7.132;2023-04-01T19:31:40;11.30;79.70
4107;DHT22;21906;50.812;7.132;2023-04-01T19:34:16;11.40;79.60
4107;DHT22;21906;50.812;7.132;2023-04-01T19:37:05;11.40;79.10
4107;DHT22;21906;50.812;7.132;2023-04-01T19:48:24;11.40;79.40
4107;DHT22;21906;50.812;7.132;2023-04-01T19:50:55;11.30;79.40
4107;DHT22;21906;50.812;7.132;2023-04-01T19:56:23;11.40;79.20
4107;DHT22;21906;50.812;7.132;2023-04-01T20:04:22;11.30;79.60
4107;DHT22;21906;50.812;7.132;2023-04-01T20:17:48;11.40;80.30
4107;DHT22;21906;50.812;7.132;2023-04-01T20:20:21;11.30;80.50
4107;DHT22;21906;50.812;7.132;2023-04-01T20:28:12;11.20;81.30
4107;DHT22;21906;50.812;7.132;2023-04-01T20:36:36;11.30;81.20
4107;DHT22;21906;50.812;7.132;2023-04-01T20:50:31;11.40;80.20
4107;DHT22;21906;50.812;7.132;2023-04-01T20:53:25;11.30;80.30
4107;DHT22;21906;50.812;7.132;2023-04-01T20:56:06;11.10;80.60
4107;DHT22;21906;50.812;7.132;2023-04-01T20:58:49;11.10;80.70
4107;DHT22;21906;50.812;7.132;2023-04-01T21:01:29;11.20;80.90
4107;DHT22;21906;50.812;7.132;2023-04-01T21:18:03;11.20;80.20
4107;DHT22;21906;50.812;7.132;2023-04-01T21:21:02;11.20;80.40
4107;DHT22;21906;50.812;7.132;2023-04-01T21:26:50;11.20;80.20
4107;DHT22;21906;50.812;7.132;2023-04-01T22:08:24;11.40;79.70
4107;DHT22;21906;50.812;7.132;2023-04-01T22:11:19;11.40;79.90
4107;DHT22;21906;50.812;7.132;2023-04-01T22:16:53;11.40;80.00
4107;DHT22;21906;50.812;7.132;2023-04-01T22:19:35;11.40;79.60
4107;DHT22;21906;50.812;7.132;2023-04-01T22:22:14;11.50;79.40
4107;DHT22;21906;50.812;7.132;2023-04-01T22:27:48;11.50;79.40
4107;DHT22;21906;50.812;7.132;2023-04-01T22:30:26;11.50;79.60
4107;DHT22;21906;50.812;7.132;2023-04-01T22:33:08;11.50;79.60
4107;DHT22;21906;50.812;7.132;2023-04-01T22:43:55;11.60;79.60
4107;DHT22;21906;50.812;7.132;2023-04-01T22:49:23;11.60;79.50
4107;DHT22;21906;50.812;7.132;2023-04-01T22:54:32;11.60;79.70
4107;DHT22;21906;50.812;7.132;2023-04-01T23:00:03;11.60;79.90
4107;DHT22;21906;50.812;7.132;2023-04-01T23:02:39;11.60;80.00
4107;DHT22;21906;50.812;7.132;2023-04-01T23:05:12;11.60;80.10
4107;DHT22;21906;50.812;7.132;2023-04-01T23:10:53;11.50;80.30
4107;DHT22;21906;50.812;7.132;2023-04-01T23:13:28;11.50;80.40
4107;DHT22;21906;50.812;7.132;2023-04-01T23:15:57;11.50;80.30
4107;DHT22;21906;50.812;7.132;2023-04-01T23:21:46;11.50;80.40
4107;DHT22;21906;50.812;7.132;2023-04-01T23:27:01;11.50;80.40
4107;DHT22;21906;50.812;7.132;2023-04-01T23:29:28;11.50;80.30
4107;DHT22;21906;50.812;7.132;2023-04-01T23:34:31;11.50;80.50
4107;DHT22;21906;50.812;7.132;2023-04-01T23:37:12;11.50;80.50
4107;DHT22;21906;50.812;7.132;2023-04-01T23:39:43;11.40;80.60
4107;DHT22;21906;50.812;7.132;2023-04-01T23:44:42;11.50;80.70
4107;DHT22;21906;50.812;7.132;2023-04-01T23:47:14;11.40;80.70
4107;DHT22;21906;50.812;7.132;2023-04-01T23:49:45;11.50;80.80
4107;DHT22;21906;50.812;7.132;2023-04-01T23:52:14;11.40;80.90
4107;DHT22;21906;50.812;7.132;2023-04-01T23:55:08;11.40;80.90
4107;DHT22;21906;50.812;7.132;2023-04-01T23:57:38;11.50;80.80
